This is the latest recevied weather packets stored in our database for station/object WA4OPQ-1. If no packets are shown the sender has not sent any weather packets the latest 10 day(s).
| Time | Temp. | Humidity | Pressure | Rain* | Wind** | Luminosity | Snow |
|---|---|---|---|---|---|---|---|
| 1787953383 | 27.78° C | 66% | 1013.8 hPa | 0 mm | 0 m/s | 54 W/m² | - |
| 1787952898 | 27.78° C | 66% | 1013.6 hPa | 0 mm | 0 m/s | 63 W/m² | - |
| 1787952328 | 28.89° C | 61% | 1013.7 hPa | 0 mm | 0 m/s | 66 W/m² | - |
| 1787951733 | 29.44° C | 62% | 1013.7 hPa | 0 mm | 0.45 m/s, 331° | 326 W/m² | - |
| 1787951223 | 29.44° C | 60% | 1013.7 hPa | 0 mm | 0 m/s | 373 W/m² | - |
| 1787950708 | 30° C | 59% | 1013.8 hPa | 0 mm | 0 m/s | 370 W/m² | - |
| 1787950133 | 30.56° C | 61% | 1013.9 hPa | 0 mm | 0.45 m/s, 329° | 67 W/m² | - |
| 1787949603 | 31.11° C | 57% | 1013.9 hPa | 0 mm | 0 m/s | 415 W/m² | - |
| 1787949033 | 31.11° C | 61% | 1013.7 hPa | 0 mm | 0 m/s | 520 W/m² | - |
| 1787948518 | 31.11° C | 57% | 1013.7 hPa | 0 mm | 0 m/s | 529 W/m² | - |
| 1787947958 | 31.67° C | 54% | 1013.8 hPa | 0 mm | 0 m/s | 539 W/m² | - |
| 1787947428 | 30° C | 59% | 1014 hPa | 0 mm | 0 m/s | 572 W/m² | - |
| 1787946903 | 30° C | 66% | 1014 hPa | 0 mm | 0.45 m/s, 324° | 151 W/m² | - |
| 1787946326 | 30.56° C | 59% | 1014.2 hPa | 0 mm | 0.45 m/s, 324° | 668 W/m² | - |
| 1787945808 | 30.56° C | 53% | 1014.5 hPa | 0 mm | 0 m/s | 645 W/m² | - |
| 1787945285 | 31.11° C | 54% | 1014.7 hPa | 0 mm | 0 m/s | 612 W/m² | - |
| 1787944723 | 31.11° C | 59% | 1014.4 hPa | 0 mm | 0 m/s | 615 W/m² | - |
| 1787944148 | 30.56° C | 55% | 1014.3 hPa | 0 mm | 0 m/s | 676 W/m² | - |
| 1787943553 | 30.56° C | 56% | 1014.7 hPa | 0 mm | 0.45 m/s, 316° | 667 W/m² | - |
| 1787942973 | 30° C | 63% | 1014.8 hPa | 0 mm | 0.89 m/s, 328° | 650 W/m² | - |
| 1787942473 | 30.56° C | 68% | 1014.9 hPa | 0 mm | 0.45 m/s, 315° | 129 W/m² | - |
| 1787941893 | 31.67° C | 55% | 1014.8 hPa | 0 mm | 0.45 m/s, 335° | 251 W/m² | - |
| 1787941388 | 30.56° C | 58% | 1015 hPa | 0 mm | 0 m/s | 700 W/m² | - |
| 1787940826 | 30.56° C | 60% | 1015.1 hPa | 0 mm | 0 m/s | 675 W/m² | - |
| 1787940238 | 30.56° C | 64% | 1015 hPa | 0 mm | 0.45 m/s, 332° | 681 W/m² | - |
* Rain latest hour (hover to see other rain measurements)
** Current wind speed in m/s (hover to see current wind gust speed)